createdAt,value
2023-01-06T00:00:35.926Z,101622.81
2023-01-06T00:03:02.669Z,101623.63
2023-01-06T00:05:29.686Z,101622.25
2023-01-06T00:07:56.469Z,101627.63
2023-01-06T00:10:23.203Z,101618.50
2023-01-06T00:12:50.249Z,101630.31
2023-01-06T00:15:17.565Z,101620.13
2023-01-06T00:17:44.674Z,101624.97
2023-01-06T00:20:12.025Z,101625.81
2023-01-06T00:22:42.281Z,101624.50
2023-01-06T00:25:12.204Z,101622.09
2023-01-06T00:27:39.757Z,101613.25
2023-01-06T00:30:07.762Z,101609.78
2023-01-06T00:32:34.606Z,101611.09
2023-01-06T00:35:01.500Z,101612.66
2023-01-06T00:37:28.056Z,101608.34
2023-01-06T00:39:54.562Z,101618.50
2023-01-06T00:42:22.703Z,101615.25
2023-01-06T00:44:49.575Z,101612.81
2023-01-06T00:47:16.480Z,101618.47
2023-01-06T00:49:43.065Z,101609.31
2023-01-06T00:52:09.692Z,101614.13
2023-01-06T00:54:37.126Z,101611.97
2023-01-06T00:57:06.325Z,101619.50
2023-01-06T00:59:32.954Z,101621.13
2023-01-06T01:02:02.115Z,101621.59
2023-01-06T01:04:29.314Z,101615.19
2023-01-06T01:06:56.084Z,101620.78
2023-01-06T01:09:25.527Z,101617.19
2023-01-06T01:12:12.965Z,101620.63
2023-01-06T01:14:47.095Z,101613.31
2023-01-06T01:17:26.976Z,101609.00
2023-01-06T01:19:55.543Z,101608.41
2023-01-06T01:22:23.793Z,101601.41
2023-01-06T01:24:50.727Z,101602.94
2023-01-06T01:27:18.137Z,101599.47
2023-01-06T01:29:45.555Z,101595.41
2023-01-06T01:32:12.277Z,101598.63
2023-01-06T01:34:39.423Z,101594.34
2023-01-06T01:37:06.046Z,101586.81
2023-01-06T01:39:32.656Z,101587.53
2023-01-06T01:41:59.473Z,101592.34
2023-01-06T01:44:56.262Z,101589.88
2023-01-06T01:47:41.244Z,101593.31
2023-01-06T01:50:24.625Z,101591.53
2023-01-06T01:52:54.046Z,101592.84
2023-01-06T01:55:21.068Z,101575.41
2023-01-06T01:57:55.101Z,101571.69
2023-01-06T02:00:21.735Z,101580.44
2023-01-06T02:02:48.657Z,101575.31
2023-01-06T02:05:19.571Z,101577.81
2023-01-06T02:07:46.675Z,101573.72
2023-01-06T02:10:21.723Z,101567.91
2023-01-06T02:12:52.055Z,101568.06
2023-01-06T02:15:26.449Z,101573.59
2023-01-06T02:18:08.047Z,101564.19
2023-01-06T02:20:45.863Z,101553.91
2023-01-06T02:23:40.540Z,101551.75
2023-01-06T02:26:33.528Z,101548.03
2023-01-06T02:29:16.013Z,101550.06
2023-01-06T02:31:59.016Z,101545.84
2023-01-06T02:34:52.866Z,101557.72
2023-01-06T02:37:45.430Z,101548.25
2023-01-06T02:40:50.211Z,101543.16
2023-01-06T02:43:26.332Z,101535.13
2023-01-06T02:46:20.182Z,101529.75
2023-01-06T02:49:24.847Z,101536.25
2023-01-06T02:51:57.691Z,101531.88
2023-01-06T02:54:46.139Z,101530.06
2023-01-06T02:57:36.698Z,101531.59
2023-01-06T03:00:15.200Z,101534.53
2023-01-06T03:02:45.668Z,101538.31
2023-01-06T03:05:14.776Z,101529.47
2023-01-06T03:07:42.641Z,101532.97
2023-01-06T03:10:10.350Z,101533.09
2023-01-06T03:12:41.897Z,101528.53
2023-01-06T03:15:09.083Z,101520.94
2023-01-06T03:17:35.835Z,101514.53
2023-01-06T03:20:03.090Z,101499.28
2023-01-06T03:22:30.326Z,101507.34
2023-01-06T03:24:56.881Z,101509.25
2023-01-06T03:27:26.272Z,101492.53
2023-01-06T03:29:54.034Z,101492.53
2023-01-06T03:32:51.910Z,101499.00
2023-01-06T03:35:42.248Z,101493.28
2023-01-06T03:38:24.933Z,101487.47
2023-01-06T03:40:56.717Z,101480.81
2023-01-06T03:43:39.381Z,101472.53
2023-01-06T03:46:25.577Z,101475.94
2023-01-06T03:49:08.240Z,101475.44
2023-01-06T03:51:46.475Z,101472.09
2023-01-06T03:54:18.760Z,101462.22
2023-01-06T03:56:49.702Z,101457.06
2023-01-06T03:59:20.719Z,101462.31
2023-01-06T04:01:50.111Z,101467.25
2023-01-06T04:04:18.803Z,101456.66
2023-01-06T04:06:46.600Z,101465.19
2023-01-06T04:09:13.826Z,101467.00
2023-01-06T04:11:59.797Z,101468.03
2023-01-06T04:14:27.799Z,101460.03
2023-01-06T04:16:54.469Z,101461.00
2023-01-06T04:19:21.345Z,101455.25
2023-01-06T04:21:47.996Z,101450.75
2023-01-06T04:24:14.685Z,101445.78
2023-01-06T04:26:41.360Z,101441.03
2023-01-06T04:29:07.969Z,101445.59
2023-01-06T04:31:35.608Z,101433.88
2023-01-06T04:34:02.653Z,101441.59
2023-01-06T04:36:30.825Z,101435.44
2023-01-06T04:38:57.648Z,101433.88
2023-01-06T04:41:24.312Z,101430.88
2023-01-06T04:43:50.859Z,101432.69
2023-01-06T04:46:17.500Z,101418.47
2023-01-06T04:48:44.042Z,101421.16
2023-01-06T04:51:10.864Z,101409.63
2023-01-06T04:53:40.783Z,101404.25
2023-01-06T04:56:10.153Z,101394.91
2023-01-06T04:58:37.154Z,101392.91
2023-01-06T05:01:06.262Z,101389.75
2023-01-06T05:03:33.099Z,101389.94
2023-01-06T05:06:05.011Z,101389.06
2023-01-06T05:08:32.121Z,101380.50
2023-01-06T05:11:06.629Z,101386.56
2023-01-06T05:13:33.326Z,101376.63
2023-01-06T05:16:00.220Z,101382.38
2023-01-06T05:18:26.849Z,101379.00
2023-01-06T05:20:54.524Z,101374.41
2023-01-06T05:23:21.426Z,101372.53
2023-01-06T05:25:51.220Z,101377.31
2023-01-06T05:28:17.983Z,101370.94
2023-01-06T05:30:44.575Z,101366.16
2023-01-06T05:33:11.106Z,101359.09
2023-01-06T05:35:37.893Z,101357.00
2023-01-06T05:38:04.471Z,101358.63
2023-01-06T05:40:31.066Z,101353.34
2023-01-06T05:42:58.170Z,101344.97
2023-01-06T05:45:25.158Z,101343.00
2023-01-06T05:47:51.911Z,101344.19
2023-01-06T05:50:18.987Z,101353.34
2023-01-06T05:52:45.516Z,101345.47
2023-01-06T05:55:12.049Z,101332.25
2023-01-06T05:57:38.608Z,101337.44
2023-01-06T06:00:06.102Z,101345.97
2023-01-06T06:02:38.670Z,101331.25
2023-01-06T06:05:05.434Z,101334.06
2023-01-06T06:07:32.015Z,101339.63
2023-01-06T06:09:58.598Z,101337.47
2023-01-06T06:12:25.187Z,101343.31
2023-01-06T06:14:51.712Z,101339.53
2023-01-06T06:17:18.795Z,101338.88
2023-01-06T06:19:45.269Z,101329.72
2023-01-06T06:22:11.803Z,101318.47
2023-01-06T06:24:38.304Z,101327.69
2023-01-06T06:27:05.145Z,101312.00
2023-01-06T06:29:31.684Z,101307.75
2023-01-06T06:31:58.439Z,101302.47
2023-01-06T06:34:25.146Z,101310.50
2023-01-06T06:36:51.726Z,101301.94
2023-01-06T06:39:18.462Z,101311.38
2023-01-06T06:41:45.050Z,101302.56
2023-01-06T06:44:11.534Z,101304.13
2023-01-06T06:46:38.081Z,101303.94
2023-01-06T06:49:04.965Z,101304.44
2023-01-06T06:51:36.094Z,101302.84
2023-01-06T06:54:03.856Z,101293.69
2023-01-06T06:56:30.381Z,101291.09
2023-01-06T06:58:56.953Z,101291.22
2023-01-06T07:01:23.539Z,101291.41
2023-01-06T07:03:50.383Z,101284.56
2023-01-06T07:06:20.324Z,101286.03
2023-01-06T07:08:47.801Z,101270.44
2023-01-06T07:11:14.546Z,101283.78
2023-01-06T07:13:41.167Z,101278.97
2023-01-06T07:16:08.136Z,101276.13
2023-01-06T07:18:34.809Z,101281.97
2023-01-06T07:21:01.501Z,101274.13
2023-01-06T07:23:28.107Z,101282.75
2023-01-06T07:25:59.744Z,101271.66
2023-01-06T07:28:27.717Z,101270.94
2023-01-06T07:30:54.585Z,101271.84
2023-01-06T07:33:21.688Z,101285.38
2023-01-06T07:35:52.603Z,101282.41
2023-01-06T07:38:19.318Z,101278.91
2023-01-06T07:40:45.851Z,101278.00
2023-01-06T07:43:12.379Z,101284.06
2023-01-06T07:45:38.884Z,101291.41
2023-01-06T07:48:05.711Z,101284.06
2023-01-06T07:50:32.487Z,101277.50
2023-01-06T07:53:00.586Z,101278.78
2023-01-06T07:55:27.337Z,101279.97
2023-01-06T07:57:54.028Z,101281.56
2023-01-06T08:00:21.181Z,101277.38
2023-01-06T08:02:47.903Z,101274.75
2023-01-06T08:05:14.763Z,101283.50
2023-01-06T08:07:41.270Z,101278.94
2023-01-06T08:10:08.183Z,101275.03
2023-01-06T08:12:34.844Z,101261.59
2023-01-06T08:15:01.364Z,101253.63
2023-01-06T08:17:28.060Z,101259.38
2023-01-06T08:19:54.645Z,101247.53
2023-01-06T08:22:21.296Z,101253.28
2023-01-06T08:24:47.834Z,101261.88
2023-01-06T08:27:14.338Z,101246.44
2023-01-06T08:29:40.901Z,101245.16
2023-01-06T08:32:10.887Z,101238.25
2023-01-06T08:34:37.923Z,101234.16
2023-01-06T08:37:04.567Z,101242.03
2023-01-06T08:39:31.142Z,101252.19
2023-01-06T08:41:57.770Z,101243.81
2023-01-06T08:44:24.313Z,101245.59
2023-01-06T08:46:50.854Z,101226.44
2023-01-06T08:49:17.420Z,101235.81
2023-01-06T08:51:44.007Z,101236.78
2023-01-06T08:54:10.685Z,101229.69
2023-01-06T08:56:39.642Z,101228.41
2023-01-06T08:59:06.292Z,101223.06
2023-01-06T09:01:35.848Z,101209.19
2023-01-06T09:04:05.463Z,101216.63
2023-01-06T09:06:32.637Z,101215.97
2023-01-06T09:08:59.720Z,101214.41
2023-01-06T09:11:26.463Z,101218.06
2023-01-06T09:13:53.381Z,101234.38
2023-01-06T09:16:20.798Z,101244.41
2023-01-06T09:18:50.318Z,101243.78
2023-01-06T09:21:21.544Z,101232.22
2023-01-06T09:23:48.170Z,101228.41
2023-01-06T09:26:16.220Z,101215.22
2023-01-06T09:28:43.107Z,101204.59
2023-01-06T09:31:10.315Z,101201.94
2023-01-06T09:33:37.145Z,101219.56
2023-01-06T09:36:04.288Z,101214.03
2023-01-06T09:38:30.995Z,101216.75
2023-01-06T09:41:09.531Z,101207.41
2023-01-06T09:43:52.566Z,101199.50
2023-01-06T09:46:22.930Z,101192.38
2023-01-06T09:49:11.528Z,101185.38
2023-01-06T09:51:38.400Z,101193.44
2023-01-06T09:54:26.374Z,101195.38
2023-01-06T09:57:06.334Z,101173.53
2023-01-06T09:59:38.917Z,101153.41
2023-01-06T10:02:11.827Z,101153.56
2023-01-06T10:04:38.427Z,101160.53
2023-01-06T10:07:15.322Z,101155.94
2023-01-06T10:10:14.013Z,101147.88
2023-01-06T10:12:46.622Z,101140.72
2023-01-06T10:15:19.213Z,101150.56
2023-01-06T10:18:13.737Z,101140.72
2023-01-06T10:20:51.848Z,101136.16
2023-01-06T10:23:44.362Z,101133.75
2023-01-06T10:26:19.977Z,101122.97
2023-01-06T10:28:53.264Z,101122.34
2023-01-06T10:31:29.823Z,101121.38
2023-01-06T10:33:57.876Z,101122.34
2023-01-06T10:36:40.670Z,101115.84
2023-01-06T10:39:15.090Z,101102.34
2023-01-06T10:42:18.657Z,101105.34
2023-01-06T10:44:45.239Z,101105.97
2023-01-06T10:47:41.364Z,101108.38
2023-01-06T10:50:11.497Z,101098.50
2023-01-06T10:52:38.765Z,101110.19
2023-01-06T10:55:06.316Z,101095.44
2023-01-06T10:57:36.243Z,101097.97
2023-01-06T11:00:13.837Z,101093.16
2023-01-06T11:02:46.325Z,101104.28
2023-01-06T11:05:18.452Z,101090.94
2023-01-06T11:07:52.079Z,101091.19
2023-01-06T11:10:27.967Z,101088.03
2023-01-06T11:12:56.768Z,101083.06
2023-01-06T11:15:25.946Z,101086.09
2023-01-06T11:17:52.618Z,101078.97
2023-01-06T11:20:19.117Z,101067.66
2023-01-06T11:22:45.716Z,101061.63
2023-01-06T11:25:21.448Z,101067.03
2023-01-06T11:27:48.931Z,101062.00
2023-01-06T11:30:26.316Z,101065.81
2023-01-06T11:32:53.051Z,101061.63
2023-01-06T11:35:21.656Z,101054.13
2023-01-06T11:37:48.229Z,101061.09
2023-01-06T11:40:47.432Z,101060.94
2023-01-06T11:43:22.038Z,101052.03
2023-01-06T11:45:57.417Z,101054.50
2023-01-06T11:48:29.811Z,101050.53
2023-01-06T11:50:59.104Z,101039.84
2023-01-06T11:53:26.235Z,101055.69
2023-01-06T11:55:57.630Z,101062.09
2023-01-06T11:58:35.930Z,101055.44
2023-01-06T12:01:17.175Z,101052.09
2023-01-06T12:03:46.846Z,101035.22
2023-01-06T12:06:13.868Z,101029.31
2023-01-06T12:08:46.344Z,101032.25
2023-01-06T12:11:17.259Z,101035.22
2023-01-06T12:13:44.903Z,101043.75
2023-01-06T12:16:33.333Z,101033.84
2023-01-06T12:19:00.033Z,101026.66
2023-01-06T12:21:29.457Z,101031.28
2023-01-06T12:23:59.329Z,101014.41
2023-01-06T12:26:26.008Z,101020.25
2023-01-06T12:28:54.907Z,101021.19
2023-01-06T12:31:57.048Z,101015.13
2023-01-06T12:34:32.285Z,101009.84
2023-01-06T12:37:16.345Z,101012.47
2023-01-06T12:39:52.003Z,101011.53
2023-01-06T12:42:27.765Z,101003.22
2023-01-06T12:45:01.707Z,101004.16
2023-01-06T12:47:38.223Z,101010.47
2023-01-06T12:50:18.176Z,100997.41
2023-01-06T12:52:51.945Z,101005.50
2023-01-06T12:55:30.931Z,101003.06
2023-01-06T12:58:04.377Z,100999.22
2023-01-06T13:00:43.060Z,101008.69
2023-01-06T13:03:39.512Z,100997.66
2023-01-06T13:06:19.701Z,101002.97
2023-01-06T13:09:18.010Z,101005.53
2023-01-06T13:11:59.959Z,101009.72
2023-01-06T13:15:16.727Z,101008.47
2023-01-06T13:17:50.955Z,101003.44
2023-01-06T13:20:23.010Z,101012.69
2023-01-06T13:23:08.681Z,101012.63
2023-01-06T13:26:00.356Z,101020.53
2023-01-06T13:29:09.077Z,101016.09
2023-01-06T13:31:45.949Z,101021.19
2023-01-06T13:34:48.041Z,101026.69
2023-01-06T13:37:44.022Z,101023.34
2023-01-06T13:40:14.450Z,101026.81
2023-01-06T13:42:53.620Z,101028.97
2023-01-06T13:45:25.210Z,101023.69
2023-01-06T13:47:52.194Z,101027.28
2023-01-06T13:50:20.528Z,101024.59
2023-01-06T13:52:47.848Z,101026.59
2023-01-06T13:55:23.895Z,101032.72
2023-01-06T13:57:50.855Z,101034.28
2023-01-06T14:00:25.469Z,101043.06
2023-01-06T14:02:52.077Z,101038.56
2023-01-06T14:05:44.874Z,101050.63
2023-01-06T14:08:17.144Z,101053.66
2023-01-06T14:10:46.009Z,101055.28
2023-01-06T14:13:29.636Z,101059.56
2023-01-06T14:15:59.413Z,101062.38
2023-01-06T14:18:31.334Z,101068.34
2023-01-06T14:21:04.591Z,101063.16
2023-01-06T14:23:31.855Z,101072.97
2023-01-06T14:25:58.708Z,101079.63
2023-01-06T14:28:28.027Z,101056.84
2023-01-06T14:31:25.546Z,101067.78
2023-01-06T14:33:54.619Z,101071.25
2023-01-06T14:36:21.350Z,101076.22
2023-01-06T14:38:50.623Z,101083.00
2023-01-06T14:41:27.908Z,101071.13
2023-01-06T14:43:58.154Z,101073.19
2023-01-06T14:46:40.211Z,101086.25
2023-01-06T14:49:15.080Z,101091.44
2023-01-06T14:51:44.262Z,101090.44
2023-01-06T14:54:21.976Z,101084.78
2023-01-06T14:56:56.788Z,101090.88
2023-01-06T14:59:23.834Z,101087.03
2023-01-06T15:01:58.655Z,101097.53
2023-01-06T15:04:30.297Z,101094.84
2023-01-06T15:07:19.363Z,101096.72
2023-01-06T15:09:47.349Z,101099.88
2023-01-06T15:12:27.450Z,101094.34
2023-01-06T15:14:54.462Z,101103.06
2023-01-06T15:17:21.315Z,101100.81
2023-01-06T15:19:49.087Z,101101.28
2023-01-06T15:22:20.832Z,101104.53
2023-01-06T15:24:48.265Z,101111.19
2023-01-06T15:27:17.182Z,101114.91
2023-01-06T15:29:52.309Z,101114.31
2023-01-06T15:32:19.410Z,101115.66
2023-01-06T15:34:47.491Z,101120.13
2023-01-06T15:37:35.170Z,101126.84
2023-01-06T15:40:02.178Z,101132.94
2023-01-06T15:42:29.161Z,101144.88
2023-01-06T15:44:58.123Z,101149.03
2023-01-06T15:47:30.130Z,101144.28
2023-01-06T15:50:02.533Z,101150.03
2023-01-06T15:52:33.156Z,101147.78
2023-01-06T15:55:02.387Z,101157.50
2023-01-06T15:57:33.131Z,101143.16
2023-01-06T16:00:02.613Z,101146.66
2023-01-06T16:02:32.226Z,101156.03
2023-01-06T16:05:02.617Z,101150.94
2023-01-06T16:07:40.674Z,101166.38
2023-01-06T16:10:33.190Z,101169.41
2023-01-06T16:13:04.972Z,101171.66
2023-01-06T16:15:45.458Z,101184.53
2023-01-06T16:18:13.205Z,101170.53
2023-01-06T16:20:40.122Z,101180.22
2023-01-06T16:23:06.815Z,101181.34
2023-01-06T16:25:35.058Z,101180.44
2023-01-06T16:28:03.567Z,101184.41
2023-01-06T16:30:31.295Z,101181.72
2023-01-06T16:33:00.225Z,101186.00
2023-01-06T16:35:29.050Z,101186.63
2023-01-06T16:37:55.712Z,101189.34
2023-01-06T16:40:24.342Z,101192.84
2023-01-06T16:42:56.918Z,101195.22
2023-01-06T16:45:29.440Z,101200.97
2023-01-06T16:47:56.167Z,101195.56
2023-01-06T16:50:33.117Z,101197.78
2023-01-06T16:53:01.483Z,101200.84
2023-01-06T16:55:28.665Z,101202.09
2023-01-06T16:57:55.580Z,101207.34
2023-01-06T17:00:23.575Z,101211.28
2023-01-06T17:02:51.125Z,101215.13
2023-01-06T17:05:22.425Z,101214.00
2023-01-06T17:07:49.326Z,101211.97
2023-01-06T17:10:21.383Z,101218.31
2023-01-06T17:13:11.733Z,101221.03
2023-01-06T17:15:38.431Z,101231.34
2023-01-06T17:18:17.297Z,101225.94
2023-01-06T17:20:44.352Z,101229.47
2023-01-06T17:23:11.717Z,101241.53
2023-01-06T17:25:38.287Z,101251.53
2023-01-06T17:28:21.310Z,101240.91
2023-01-06T17:30:49.059Z,101244.88
2023-01-06T17:33:17.044Z,101250.75
2023-01-06T17:35:48.941Z,101248.38
2023-01-06T17:38:21.835Z,101264.00
2023-01-06T17:40:49.120Z,101263.69
2023-01-06T17:43:28.101Z,101272.47
2023-01-06T17:45:55.023Z,101261.47
2023-01-06T17:48:21.851Z,101274.53
2023-01-06T17:50:53.969Z,101270.91
2023-01-06T17:53:50.328Z,101271.56
2023-01-06T17:56:17.450Z,101276.97
2023-01-06T17:58:45.242Z,101279.69
2023-01-06T18:01:26.242Z,101280.00
2023-01-06T18:03:53.938Z,101290.19
2023-01-06T18:06:37.374Z,101291.94
2023-01-06T18:09:16.862Z,101290.50
2023-01-06T18:11:47.983Z,101290.00
2023-01-06T18:14:15.554Z,101293.28
2023-01-06T18:16:44.696Z,101292.13
2023-01-06T18:19:17.502Z,101297.22
2023-01-06T18:21:45.778Z,101298.97
2023-01-06T18:24:16.210Z,101303.56
2023-01-06T18:26:55.140Z,101301.84
2023-01-06T18:29:25.350Z,101304.56
2023-01-06T18:31:53.726Z,101296.44
2023-01-06T18:34:38.304Z,101297.28
2023-01-06T18:37:04.985Z,101296.31
2023-01-06T18:39:43.645Z,101293.94
2023-01-06T18:42:30.304Z,101296.34
2023-01-06T18:45:01.319Z,101284.41
2023-01-06T18:47:28.372Z,101289.22
2023-01-06T18:49:58.420Z,101298.91
2023-01-06T18:52:33.969Z,101289.69
2023-01-06T18:55:04.649Z,101298.44
2023-01-06T18:57:32.123Z,101308.47
2023-01-06T19:00:14.946Z,101305.94
2023-01-06T19:02:41.866Z,101303.69
2023-01-06T19:05:12.115Z,101309.09
2023-01-06T19:07:38.675Z,101309.75
2023-01-06T19:10:12.926Z,101320.22
2023-01-06T19:12:40.941Z,101312.47
2023-01-06T19:15:25.095Z,101313.09
2023-01-06T19:17:53.861Z,101312.63
2023-01-06T19:20:35.130Z,101323.28
2023-01-06T19:23:13.796Z,101322.94
2023-01-06T19:25:41.528Z,101319.16
2023-01-06T19:28:24.362Z,101322.50
2023-01-06T19:30:53.752Z,101323.59
2023-01-06T19:33:28.130Z,101331.72
2023-01-06T19:36:30.659Z,101328.88
2023-01-06T19:39:03.051Z,101333.94
2023-01-06T19:41:32.185Z,101340.47
2023-01-06T19:44:07.620Z,101337.63
2023-01-06T19:46:40.707Z,101336.66
2023-01-06T19:49:17.592Z,101348.59
2023-01-06T19:51:44.298Z,101342.72
2023-01-06T19:54:11.175Z,101349.25
2023-01-06T19:56:42.347Z,101353.53
2023-01-06T19:59:21.886Z,101350.03
2023-01-06T20:01:56.212Z,101344.63
2023-01-06T20:04:24.926Z,101349.41
2023-01-06T20:06:51.416Z,101350.84
2023-01-06T20:09:18.031Z,101348.13
2023-01-06T20:11:44.496Z,101343.84
2023-01-06T20:14:11.021Z,101354.16
2023-01-06T20:16:37.695Z,101349.72
2023-01-06T20:19:04.707Z,101350.84
2023-01-06T20:21:31.279Z,101364.66
2023-01-06T20:23:58.508Z,101357.97
2023-01-06T20:26:25.426Z,101362.41
2023-01-06T20:28:52.093Z,101360.84
2023-01-06T20:31:18.924Z,101362.72
2023-01-06T20:33:46.120Z,101366.38
2023-01-06T20:36:16.980Z,101366.38
2023-01-06T20:38:44.636Z,101362.41
2023-01-06T20:41:11.284Z,101369.25
2023-01-06T20:43:37.894Z,101366.22
2023-01-06T20:46:04.661Z,101367.03
2023-01-06T20:48:31.310Z,101370.19
2023-01-06T20:50:58.058Z,101368.31
2023-01-06T20:53:24.581Z,101375.75
2023-01-06T20:55:51.098Z,101375.44
2023-01-06T20:58:17.579Z,101370.50
2023-01-06T21:00:44.224Z,101370.81
2023-01-06T21:03:10.772Z,101376.56
2023-01-06T21:05:37.408Z,101375.44
2023-01-06T21:08:03.925Z,101379.25
2023-01-06T21:10:30.778Z,101380.84
2023-01-06T21:12:58.481Z,101374.94
2023-01-06T21:15:26.179Z,101376.56
2023-01-06T21:17:53.042Z,101385.59
2023-01-06T21:20:19.640Z,101384.50
2023-01-06T21:22:46.142Z,101382.13
2023-01-06T21:25:12.745Z,101385.94
2023-01-06T21:27:39.262Z,101384.31
2023-01-06T21:30:06.181Z,101381.97
2023-01-06T21:32:32.676Z,101392.25
2023-01-06T21:34:59.983Z,101390.97
2023-01-06T21:37:27.117Z,101382.88
2023-01-06T21:39:53.699Z,101385.91
2023-01-06T21:42:38.684Z,101386.69
2023-01-06T21:45:06.211Z,101391.94
2023-01-06T21:47:32.721Z,101387.97
2023-01-06T21:49:59.198Z,101390.19
2023-01-06T21:52:25.719Z,101390.03
2023-01-06T21:54:52.529Z,101390.34
2023-01-06T21:57:22.747Z,101397.16
2023-01-06T21:59:52.304Z,101398.09
2023-01-06T22:02:19.755Z,101397.72
2023-01-06T22:04:52.322Z,101400.25
2023-01-06T22:07:23.452Z,101389.75
2023-01-06T22:09:56.565Z,101395.16
2023-01-06T22:12:26.994Z,101388.19
2023-01-06T22:14:54.155Z,101390.09
2023-01-06T22:17:21.677Z,101393.41
2023-01-06T22:19:53.712Z,101397.53
2023-01-06T22:22:25.008Z,101400.34
2023-01-06T22:24:53.394Z,101398.47
2023-01-06T22:27:20.222Z,101399.88
2023-01-06T22:29:46.783Z,101405.28
2023-01-06T22:32:13.306Z,101404.16
2023-01-06T22:34:39.819Z,101412.56
2023-01-06T22:37:06.379Z,101409.09
2023-01-06T22:39:32.867Z,101405.88
2023-01-06T22:42:00.214Z,101417.16
2023-01-06T22:44:27.198Z,101416.38
2023-01-06T22:46:53.765Z,101413.81
2023-01-06T22:49:20.236Z,101412.69
2023-01-06T22:51:46.829Z,101412.53
2023-01-06T22:54:13.401Z,101411.25
2023-01-06T22:56:41.732Z,101405.38
2023-01-06T22:59:08.958Z,101408.38
2023-01-06T23:01:35.620Z,101417.41
2023-01-06T23:04:03.290Z,101407.72
2023-01-06T23:06:30.157Z,101399.16
2023-01-06T23:09:00.569Z,101407.06
2023-01-06T23:11:28.449Z,101406.88
2023-01-06T23:13:59.289Z,101402.31
2023-01-06T23:16:26.764Z,101405.13
2023-01-06T23:18:53.820Z,101394.66
2023-01-06T23:21:22.257Z,101393.06
2023-01-06T23:23:49.559Z,101399.56
2023-01-06T23:26:45.916Z,101395.38
2023-01-06T23:29:13.402Z,101390.00
2023-01-06T23:31:42.384Z,101390.81
2023-01-06T23:34:11.212Z,101401.09
2023-01-06T23:36:38.304Z,101397.59
2023-01-06T23:39:07.399Z,101397.59
2023-01-06T23:41:35.686Z,101406.50
2023-01-06T23:44:02.778Z,101399.00
2023-01-06T23:46:31.975Z,101401.72
2023-01-06T23:48:59.042Z,101403.41
2023-01-06T23:51:26.326Z,101406.56
2023-01-06T23:53:53.023Z,101413.06
2023-01-06T23:56:22.088Z,101406.56
2023-01-06T23:58:50.151Z,101406.69
